Time;durP1;ratioP1;P1;durP2;ratioP2;P2;SDS_P1;SDS_P2;PMS_P1;PMS_P2;Temp;Humidity;BMP_temperature;BMP_pressure;BME280_temperature;BME280_humidity;BME280_pressure;Samples;Min_cycle;Max_cycle;Signal;HPM_P1;HPM_P2
2022/12/30 00:01:38;;;;;;;0.40;0.40;;;5.00;99.90;;;;;;5058168;28;20433;-74
2022/12/30 00:04:05;;;;;;;0.30;0.30;;;4.90;99.90;;;;;;5069379;28;20459;-73
2022/12/30 00:06:31;;;;;;;0.20;0.10;;;4.80;99.90;;;;;;5068938;28;20431;-73
2022/12/30 00:08:58;;;;;;;0.30;0.30;;;4.70;99.90;;;;;;5062739;28;20960;-74
2022/12/30 00:11:31;;;;;;;0.10;0.10;;;4.50;99.90;;;;;;5043605;28;20444;-74
2022/12/30 00:34:10;;;;;;;0.15;0.15;;;4.00;99.90;;;;;;5066512;28;20787;-73
2022/12/30 00:36:39;;;;;;;0.40;0.40;;;4.10;99.90;;;;;;5064376;28;20432;-73
2022/12/30 00:39:05;;;;;;;0.30;0.30;;;4.10;99.90;;;;;;5072304;28;20510;-73
2022/12/30 00:44:20;;;;;;;0.30;0.30;;;4.10;99.90;;;;;;5068852;28;20418;-73
2022/12/30 00:46:47;;;;;;;0.55;0.45;;;4.10;99.90;;;;;;5066703;28;22269;-73
2022/12/30 00:57:31;;;;;;;0.40;0.40;;;3.90;99.90;;;;;;5057204;28;20438;-73
2022/12/30 01:00:00;;;;;;;0.10;0.10;;;4.00;99.90;;;;;;5062825;28;20495;-73
2022/12/30 01:02:27;;;;;;;0.20;0.20;;;4.10;99.90;;;;;;5060821;28;20516;-74
2022/12/30 01:04:54;;;;;;;0.10;0.10;;;4.20;99.90;;;;;;5051688;28;20433;-74
2022/12/30 01:07:21;;;;;;;1.15;0.85;;;4.20;99.90;;;;;;5065160;28;20539;-73
2022/12/30 01:09:48;;;;;;;0.20;0.20;;;4.20;99.90;;;;;;5066372;28;20435;-73
2022/12/30 01:12:15;;;;;;;0.20;0.20;;;4.20;99.90;;;;;;5050746;28;20517;-73
2022/12/30 01:14:48;;;;;;;0.25;0.25;;;4.00;99.90;;;;;;5061999;28;20437;-74
2022/12/30 01:17:21;;;;;;;0.20;0.20;;;3.80;99.90;;;;;;5066447;28;20431;-73
2022/12/30 01:19:48;;;;;;;0.20;0.20;;;3.60;99.90;;;;;;5059919;28;21101;-74
2022/12/30 01:22:16;;;;;;;0.20;0.20;;;3.50;99.90;;;;;;5066115;28;20436;-74
2022/12/30 01:24:42;;;;;;;4.45;0.40;;;3.40;99.90;;;;;;5063519;28;20430;-74
2022/12/30 01:27:11;;;;;;;0.22;0.22;;;3.40;99.90;;;;;;5072418;28;20428;-73
2022/12/30 01:29:39;;;;;;;0.30;0.30;;;3.40;99.90;;;;;;5044565;28;20789;-74
2022/12/30 01:32:15;;;;;;;0.90;0.70;;;3.40;99.90;;;;;;5051846;28;20432;-74
2022/12/30 01:34:45;;;;;;;0.10;0.10;;;3.40;99.90;;;;;;5054527;28;20444;-73
2022/12/30 01:37:14;;;;;;;0.40;0.23;;;3.50;99.90;;;;;;5062953;28;20434;-73
2022/12/30 01:39:41;;;;;;;0.20;0.20;;;3.40;99.90;;;;;;5055982;28;20435;-74
2022/12/30 01:42:29;;;;;;;0.60;0.40;;;3.40;99.90;;;;;;5066866;28;20433;-74
2022/12/30 01:45:24;;;;;;;0.10;0.10;;;3.30;99.90;;;;;;5062051;28;20438;-74
2022/12/30 01:48:15;;;;;;;0.10;0.10;;;3.00;99.90;;;;;;5065412;28;20482;-74
2022/12/30 01:51:16;;;;;;;0.20;0.20;;;3.10;99.90;;;;;;5061743;28;20463;-74
2022/12/30 01:53:46;;;;;;;0.30;0.30;;;3.20;99.90;;;;;;5006734;28;20440;-74
2022/12/30 01:56:33;;;;;;;0.10;0.10;;;3.40;99.90;;;;;;5010153;28;21022;-74
2022/12/30 01:59:13;;;;;;;0.30;0.30;;;3.40;99.90;;;;;;5005598;28;20424;-74
2022/12/30 02:01:41;;;;;;;0.40;0.30;;;3.40;99.90;;;;;;4986200;28;20432;-74
2022/12/30 02:04:18;;;;;;;0.40;0.40;;;3.50;99.90;;;;;;5003581;28;20431;-74
2022/12/30 02:07:22;;;;;;;0.10;0.10;;;3.60;99.90;;;;;;5004207;28;20552;-74
2022/12/30 02:09:50;;;;;;;0.40;0.40;;;3.70;99.90;;;;;;5004831;28;20521;-74
2022/12/30 02:12:17;;;;;;;0.20;0.20;;;3.80;99.90;;;;;;5009387;28;20447;-74
2022/12/30 02:14:46;;;;;;;3.90;0.45;;;3.80;99.90;;;;;;5005473;28;20437;-74
2022/12/30 02:17:51;;;;;;;0.60;0.25;;;3.70;99.90;;;;;;5001963;28;20470;-74
2022/12/30 02:21:00;;;;;;;2.05;1.25;;;3.50;99.90;;;;;;5006941;28;20436;-74
2022/12/30 02:23:35;;;;;;;0.10;0.10;;;3.50;99.90;;;;;;5003205;28;20442;-74
2022/12/30 02:26:20;;;;;;;0.10;0.10;;;3.40;99.90;;;;;;5007472;28;20435;-74
2022/12/30 02:29:02;;;;;;;0.20;0.20;;;3.20;99.90;;;;;;5010270;28;20429;-74
2022/12/30 02:31:50;;;;;;;0.60;0.60;;;3.10;99.90;;;;;;5052315;28;20463;-74
2022/12/30 02:34:22;;;;;;;0.10;0.10;;;3.00;99.90;;;;;;5042589;28;20425;-74
2022/12/30 02:37:04;;;;;;;0.10;0.10;;;3.00;99.90;;;;;;5046200;28;20419;-74
2022/12/30 02:40:25;;;;;;;0.30;0.30;;;3.00;99.90;;;;;;5066138;28;20502;-74
2022/12/30 02:45:51;;;;;;;0.10;0.10;;;3.00;99.90;;;;;;5057207;28;20511;-74
2022/12/30 02:48:23;;;;;;;1.20;0.20;;;3.00;99.90;;;;;;5054018;28;20464;-75
2022/12/30 02:53:39;;;;;;;0.10;0.10;;;3.00;99.90;;;;;;5064892;28;20814;-74
2022/12/30 02:56:07;;;;;;;0.20;0.20;;;2.90;99.90;;;;;;5061306;28;20433;-74
2022/12/30 02:58:39;;;;;;;0.13;0.13;;;3.00;99.90;;;;;;5064839;28;20436;-74
2022/12/30 03:04:26;;;;;;;0.20;0.10;;;3.10;99.90;;;;;;5067635;28;20425;-74
2022/12/30 03:07:01;;;;;;;0.10;0.10;;;2.90;99.90;;;;;;5071584;28;20424;-74
2022/12/30 03:12:50;;;;;;;0.08;0.08;;;2.90;99.90;;;;;;5067311;28;20913;-74
2022/12/30 03:15:21;;;;;;;0.55;0.45;;;2.90;99.90;;;;;;5070585;28;20433;-75
2022/12/30 03:17:49;;;;;;;0.10;0.10;;;3.00;99.90;;;;;;5062710;28;20451;-74
2022/12/30 03:20:19;;;;;;;0.20;0.20;;;2.90;99.90;;;;;;5069535;28;20515;-74
2022/12/30 03:28:27;;;;;;;0.20;0.20;;;2.60;99.90;;;;;;5063568;28;20435;-74
2022/12/30 03:30:59;;;;;;;0.20;0.20;;;2.60;99.90;;;;;;5063251;28;20425;-74
2022/12/30 03:33:28;;;;;;;2.00;0.20;;;2.50;99.90;;;;;;5062121;28;20963;-75
2022/12/30 03:36:00;;;;;;;0.10;0.10;;;2.40;99.90;;;;;;5070564;28;20924;-74
2022/12/30 03:38:31;;;;;;;0.50;0.10;;;2.20;99.90;;;;;;5052772;28;21159;-75
2022/12/30 03:41:01;;;;;;;0.10;0.10;;;2.20;99.90;;;;;;5047373;28;20432;-75
2022/12/30 03:43:28;;;;;;;0.10;0.10;;;2.20;99.90;;;;;;5065284;28;20450;-75
2022/12/30 03:45:58;;;;;;;0.20;0.20;;;2.20;99.90;;;;;;5053120;28;20434;-75
2022/12/30 03:48:25;;;;;;;0.30;0.20;;;2.20;99.90;;;;;;5068766;28;20433;-75
2022/12/30 03:50:52;;;;;;;0.10;0.10;;;2.40;99.90;;;;;;5065943;28;21355;-75
2022/12/30 03:53:18;;;;;;;0.10;0.10;;;2.50;99.90;;;;;;5058227;28;20425;-75
2022/12/30 03:55:45;;;;;;;0.00;0.00;;;2.70;99.90;;;;;;5066870;28;20437;-75
2022/12/30 03:58:12;;;;;;;0.20;0.20;;;2.70;99.90;;;;;;5047797;28;20436;-75
2022/12/30 04:00:38;;;;;;;1.10;0.30;;;2.60;99.90;;;;;;5076240;28;20430;-75
2022/12/30 04:03:05;;;;;;;0.30;0.30;;;2.60;99.90;;;;;;5052519;28;20487;-75
2022/12/30 04:05:32;;;;;;;0.10;0.10;;;2.50;99.90;;;;;;5070984;28;20435;-75
2022/12/30 04:08:01;;;;;;;0.20;0.20;;;2.50;99.90;;;;;;5067686;28;20429;-75
2022/12/30 04:10:28;;;;;;;0.20;0.20;;;2.40;99.90;;;;;;5068736;28;20799;-75
2022/12/30 04:12:55;;;;;;;0.10;0.10;;;2.30;99.90;;;;;;5065225;28;20790;-75
2022/12/30 04:15:24;;;;;;;0.10;0.10;;;2.30;99.90;;;;;;5053985;28;20487;-75
2022/12/30 04:17:51;;;;;;;0.28;0.28;;;2.20;99.90;;;;;;5065351;28;20455;-75
2022/12/30 04:20:18;;;;;;;0.43;0.43;;;2.50;99.90;;;;;;5069165;28;20833;-75
2022/12/30 04:22:45;;;;;;;0.10;0.10;;;2.50;99.90;;;;;;5071269;28;20423;-75
2022/12/30 04:25:14;;;;;;;0.10;0.10;;;2.60;99.90;;;;;;5060593;28;20440;-75
2022/12/30 04:27:41;;;;;;;0.10;0.10;;;3.00;99.90;;;;;;5064115;28;20446;-75
2022/12/30 04:30:11;;;;;;;0.20;0.20;;;3.30;99.90;;;;;;5064236;28;20429;-75
2022/12/30 04:32:37;;;;;;;0.13;0.13;;;3.60;99.90;;;;;;5056710;28;20427;-75
2022/12/30 04:35:04;;;;;;;3.10;0.20;;;3.70;99.90;;;;;;5062972;28;20511;-74
2022/12/30 04:37:31;;;;;;;0.25;0.25;;;3.90;99.90;;;;;;5060508;28;20435;-74
2022/12/30 04:39:58;;;;;;;0.10;0.10;;;4.10;99.90;;;;;;5074910;28;20965;-74
2022/12/30 04:42:25;;;;;;;0.30;0.30;;;4.20;99.90;;;;;;5067630;28;20985;-74
2022/12/30 04:44:52;;;;;;;0.20;0.20;;;4.30;99.90;;;;;;5067944;28;20433;-74
2022/12/30 04:47:18;;;;;;;0.30;0.30;;;4.40;99.90;;;;;;5066092;28;20493;-74
2022/12/30 04:49:45;;;;;;;0.90;0.20;;;4.40;99.90;;;;;;5062517;28;20436;-74
2022/12/30 04:52:12;;;;;;;0.13;0.13;;;4.40;99.90;;;;;;5060473;28;20442;-74
2022/12/30 04:54:38;;;;;;;0.80;0.20;;;4.40;99.90;;;;;;5063160;28;20435;-74
2022/12/30 04:57:05;;;;;;;0.40;0.10;;;4.40;99.90;;;;;;5061675;28;20844;-74
2022/12/30 04:59:32;;;;;;;0.50;0.15;;;4.40;99.90;;;;;;5063740;28;20423;-74
2022/12/30 05:01:59;;;;;;;0.10;0.10;;;4.30;99.90;;;;;;5059002;28;20432;-74
2022/12/30 05:04:26;;;;;;;0.30;0.20;;;4.30;99.90;;;;;;5053488;28;20433;-74
2022/12/30 05:06:55;;;;;;;0.00;0.00;;;4.30;99.90;;;;;;5064706;28;20474;-74
2022/12/30 05:09:22;;;;;;;0.60;0.60;;;4.40;99.90;;;;;;5059178;28;20437;-73
2022/12/30 05:11:49;;;;;;;0.17;0.17;;;4.40;99.90;;;;;;5062014;28;20433;-74
2022/12/30 05:14:16;;;;;;;0.10;0.10;;;4.50;99.90;;;;;;5064307;28;20450;-74
2022/12/30 05:16:43;;;;;;;1.60;0.30;;;4.50;99.90;;;;;;5078857;28;20421;-74
2022/12/30 05:19:10;;;;;;;2.55;0.55;;;4.50;99.90;;;;;;5077586;28;20503;-74
2022/12/30 05:21:37;;;;;;;0.20;0.20;;;4.60;99.90;;;;;;5053384;28;20440;-74
2022/12/30 05:26:49;;;;;;;1.00;0.37;;;4.60;99.90;;;;;;5062677;28;20781;-73
2022/12/30 05:29:16;;;;;;;0.30;0.30;;;4.70;99.90;;;;;;5033873;28;20460;-74
2022/12/30 05:31:46;;;;;;;0.20;0.20;;;4.70;99.90;;;;;;5079076;28;20429;-74
2022/12/30 05:34:13;;;;;;;0.10;0.10;;;4.70;99.90;;;;;;5064481;28;20537;-74
2022/12/30 05:36:39;;;;;;;0.30;0.30;;;4.70;99.90;;;;;;5048060;28;20433;-73
2022/12/30 05:39:06;;;;;;;0.17;0.17;;;4.70;99.90;;;;;;5058446;28;20505;-74
2022/12/30 05:41:33;;;;;;;0.10;0.10;;;4.70;99.90;;;;;;5085273;28;20470;-74
2022/12/30 05:44:00;;;;;;;0.50;0.20;;;4.70;99.90;;;;;;5073366;28;20518;-74
2022/12/30 05:46:29;;;;;;;1.10;0.30;;;4.70;99.90;;;;;;5076906;28;20436;-74
2022/12/30 05:48:57;;;;;;;4.70;0.50;;;4.70;99.90;;;;;;5066609;28;20450;-74
2022/12/30 05:51:27;;;;;;;0.15;0.15;;;4.80;99.90;;;;;;5062870;28;20429;-74
2022/12/30 05:53:56;;;;;;;0.47;0.27;;;4.80;99.90;;;;;;5061994;28;20427;-74
2022/12/30 05:56:23;;;;;;;0.20;0.20;;;4.80;99.90;;;;;;5076043;28;20463;-74
2022/12/30 05:58:50;;;;;;;0.80;0.40;;;4.90;99.90;;;;;;5067645;28;20418;-74
2022/12/30 06:01:17;;;;;;;0.82;0.22;;;4.90;99.90;;;;;;5064719;28;20483;-74
2022/12/30 06:03:43;;;;;;;0.75;0.38;;;5.00;99.90;;;;;;5063492;28;20454;-74
2022/12/30 06:06:10;;;;;;;0.10;0.10;;;5.00;99.90;;;;;;5069498;28;20429;-73
2022/12/30 06:08:42;;;;;;;0.20;0.20;;;5.10;99.90;;;;;;5045817;28;20424;-74
2022/12/30 06:11:09;;;;;;;4.10;0.60;;;5.10;99.90;;;;;;5070831;28;20424;-74
2022/12/30 06:13:42;;;;;;;2.47;0.50;;;5.20;99.90;;;;;;5062186;28;20429;-74
2022/12/30 06:16:09;;;;;;;0.05;0.05;;;5.20;99.90;;;;;;5072265;28;20479;-74
2022/12/30 06:18:35;;;;;;;0.20;0.20;;;5.20;99.90;;;;;;5068587;28;20427;-74
2022/12/30 06:21:05;;;;;;;0.20;0.20;;;5.20;99.90;;;;;;5046820;28;20439;-74
2022/12/30 06:23:32;;;;;;;0.20;0.20;;;5.20;99.90;;;;;;5052863;28;20795;-73
2022/12/30 06:25:59;;;;;;;0.20;0.20;;;5.20;99.90;;;;;;5061298;28;20429;-73
2022/12/30 06:28:29;;;;;;;0.70;0.40;;;5.20;99.90;;;;;;5081966;28;20922;-73
2022/12/30 06:30:57;;;;;;;0.30;0.30;;;5.30;99.90;;;;;;5063638;28;20427;-73
2022/12/30 06:33:24;;;;;;;0.13;0.13;;;5.30;99.90;;;;;;5062372;28;20429;-73
2022/12/30 06:35:51;;;;;;;0.17;0.17;;;5.30;99.90;;;;;;5062556;28;20435;-72
2022/12/30 06:38:19;;;;;;;0.20;0.13;;;5.30;99.90;;;;;;5059795;28;20433;-73
2022/12/30 06:40:46;;;;;;;0.60;0.20;;;5.20;99.90;;;;;;5057993;28;20510;-73
2022/12/30 06:43:13;;;;;;;0.10;0.10;;;5.20;99.90;;;;;;5067268;28;20423;-73
2022/12/30 06:45:42;;;;;;;0.20;0.20;;;5.20;99.90;;;;;;5063356;28;20542;-73
2022/12/30 06:48:09;;;;;;;0.17;0.17;;;5.20;99.90;;;;;;5039070;28;20484;-73
2022/12/30 06:50:36;;;;;;;0.10;0.10;;;5.20;99.90;;;;;;5056632;28;20467;-73
2022/12/30 06:53:06;;;;;;;0.27;0.27;;;5.30;99.90;;;;;;5072568;28;20438;-73
2022/12/30 06:55:33;;;;;;;1.33;0.28;;;5.30;99.90;;;;;;5052703;28;21064;-73
2022/12/30 06:58:03;;;;;;;0.95;0.35;;;5.30;99.90;;;;;;5057918;28;20463;-73
2022/12/30 07:00:31;;;;;;;1.20;0.47;;;5.30;99.90;;;;;;5052246;28;20850;-73
2022/12/30 07:02:58;;;;;;;0.40;0.40;;;5.20;99.90;;;;;;5056468;28;20434;-73
2022/12/30 07:05:25;;;;;;;0.40;0.40;;;5.20;99.90;;;;;;5049221;28;20427;-73
2022/12/30 07:07:52;;;;;;;0.30;0.30;;;5.20;99.90;;;;;;5063674;28;20514;-73
2022/12/30 07:10:18;;;;;;;0.10;0.10;;;5.20;99.90;;;;;;5053152;28;20897;-73
2022/12/30 07:12:45;;;;;;;1.77;0.40;;;5.20;99.90;;;;;;5048648;28;20433;-73
2022/12/30 07:15:12;;;;;;;0.20;0.20;;;5.20;99.90;;;;;;5058156;28;20949;-73
2022/12/30 07:17:39;;;;;;;0.38;0.13;;;5.10;99.90;;;;;;5057356;28;20433;-73
2022/12/30 07:20:06;;;;;;;1.90;0.17;;;5.20;99.90;;;;;;5050863;28;20444;-73
2022/12/30 07:22:33;;;;;;;0.30;0.30;;;5.10;99.90;;;;;;5053242;28;20435;-74
2022/12/30 07:25:03;;;;;;;0.20;0.20;;;5.10;99.90;;;;;;5050038;28;21184;-73
2022/12/30 07:27:29;;;;;;;0.20;0.20;;;5.20;99.90;;;;;;5058518;28;20437;-73
2022/12/30 07:29:56;;;;;;;0.20;0.20;;;5.20;99.90;;;;;;5043797;28;20467;-73
2022/12/30 07:32:23;;;;;;;0.32;0.32;;;5.30;99.90;;;;;;5064969;28;20512;-73
2022/12/30 07:34:49;;;;;;;0.60;0.20;;;5.30;99.90;;;;;;5041506;28;20438;-73
2022/12/30 07:37:16;;;;;;;0.22;0.22;;;5.20;99.90;;;;;;5060035;28;20469;-73
2022/12/30 07:39:43;;;;;;;0.20;0.20;;;5.30;99.90;;;;;;5064191;28;20425;-73
2022/12/30 07:42:10;;;;;;;0.30;0.28;;;5.30;99.90;;;;;;5059231;28;20423;-73
2022/12/30 07:44:37;;;;;;;0.20;0.20;;;5.30;99.90;;;;;;5055473;28;20423;-73
2022/12/30 07:47:05;;;;;;;0.60;0.60;;;5.30;99.90;;;;;;5058681;28;20431;-73
2022/12/30 07:49:41;;;;;;;0.80;0.30;;;5.20;99.90;;;;;;5049322;28;20429;-73
2022/12/30 07:52:07;;;;;;;0.20;0.20;;;5.10;99.90;;;;;;5044961;28;20520;-73
2022/12/30 07:54:34;;;;;;;3.65;0.65;;;5.00;99.90;;;;;;5051271;28;20898;-73
2022/12/30 07:57:01;;;;;;;1.02;0.28;;;4.90;99.90;;;;;;5054045;28;20902;-73
2022/12/30 07:59:27;;;;;;;0.40;0.40;;;4.90;99.90;;;;;;5066511;28;20443;-73
2022/12/30 08:01:54;;;;;;;0.50;0.40;;;5.00;99.90;;;;;;5058658;28;20515;-73
2022/12/30 08:04:21;;;;;;;0.20;0.20;;;5.00;99.90;;;;;;5058452;28;20484;-73
2022/12/30 08:07:11;;;;;;;0.20;0.20;;;5.00;99.90;;;;;;5054960;28;20486;-74
2022/12/30 08:09:38;;;;;;;0.30;0.30;;;5.10;99.90;;;;;;5069481;28;20428;-74
2022/12/30 08:12:04;;;;;;;0.30;0.30;;;5.20;99.90;;;;;;5070908;28;21102;-74
2022/12/30 08:14:31;;;;;;;6.95;1.00;;;5.20;99.90;;;;;;5069357;28;20533;-72
2022/12/30 08:16:58;;;;;;;0.60;0.50;;;5.30;99.90;;;;;;5059753;28;20514;-72
2022/12/30 08:19:28;;;;;;;0.40;0.40;;;5.30;99.90;;;;;;5054916;28;20435;-72
2022/12/30 08:21:55;;;;;;;0.20;0.20;;;5.30;99.90;;;;;;5055967;28;20435;-72
2022/12/30 08:24:21;;;;;;;0.25;0.25;;;5.40;99.90;;;;;;5067521;28;20427;-72
2022/12/30 08:26:49;;;;;;;0.60;0.50;;;5.40;99.90;;;;;;5052669;28;20461;-72
2022/12/30 08:29:16;;;;;;;0.70;0.40;;;5.40;99.90;;;;;;5060524;28;20462;-73
2022/12/30 08:31:49;;;;;;;1.10;0.70;;;5.30;99.90;;;;;;5057187;28;20794;-73
2022/12/30 08:34:17;;;;;;;0.38;0.28;;;5.20;99.90;;;;;;5051967;28;20440;-73
2022/12/30 08:36:44;;;;;;;1.40;0.60;;;5.20;99.90;;;;;;5064810;28;20436;-73
2022/12/30 08:39:12;;;;;;;0.73;0.32;;;5.30;99.90;;;;;;5057511;28;20429;-73
2022/12/30 08:41:46;;;;;;;0.55;0.40;;;5.30;99.90;;;;;;5048749;28;20436;-73
2022/12/30 08:44:21;;;;;;;0.40;0.40;;;5.50;99.90;;;;;;5053801;28;20562;-73
2022/12/30 08:46:51;;;;;;;0.90;0.50;;;5.60;99.90;;;;;;5060964;28;20431;-73
2022/12/30 08:49:21;;;;;;;0.93;0.53;;;5.70;99.90;;;;;;5050467;28;20516;-73
2022/12/30 08:51:51;;;;;;;0.52;0.52;;;5.70;99.90;;;;;;5055901;28;20514;-74
2022/12/30 08:54:18;;;;;;;0.65;0.65;;;5.80;99.90;;;;;;5058471;28;20436;-74
2022/12/30 08:56:47;;;;;;;1.00;0.83;;;5.90;99.90;;;;;;5058524;28;20429;-74
2022/12/30 08:59:14;;;;;;;0.93;0.63;;;6.00;99.90;;;;;;5050665;28;20934;-74
2022/12/30 09:01:43;;;;;;;0.38;0.38;;;6.00;99.90;;;;;;5056711;28;20508;-74
2022/12/30 09:04:10;;;;;;;0.43;0.43;;;6.00;99.90;;;;;;5059147;28;20424;-72
2022/12/30 09:06:39;;;;;;;0.35;0.30;;;6.00;99.90;;;;;;5064610;28;20424;-75
2022/12/30 09:09:08;;;;;;;0.50;0.50;;;6.10;99.90;;;;;;5050014;28;20448;-75
2022/12/30 09:11:37;;;;;;;0.70;0.50;;;6.20;99.90;;;;;;5051969;28;20450;-74
2022/12/30 09:14:05;;;;;;;0.70;0.70;;;6.20;99.90;;;;;;5059073;28;20774;-75
2022/12/30 09:16:35;;;;;;;0.50;0.50;;;6.20;99.90;;;;;;5053990;28;20444;-74
2022/12/30 09:19:03;;;;;;;6.28;0.50;;;6.30;99.90;;;;;;5058627;28;20436;-74
2022/12/30 09:21:33;;;;;;;0.75;0.60;;;6.30;99.90;;;;;;5064508;28;20428;-74
2022/12/30 09:24:00;;;;;;;0.60;0.60;;;6.40;99.90;;;;;;5066644;28;20914;-74
2022/12/30 09:26:28;;;;;;;0.80;0.40;;;6.50;99.90;;;;;;5068601;28;21191;-74
2022/12/30 09:28:56;;;;;;;3.97;0.47;;;6.60;99.90;;;;;;5066318;28;20491;-74
2022/12/30 09:31:23;;;;;;;0.40;0.40;;;6.60;99.90;;;;;;5071218;28;20514;-75
2022/12/30 09:33:50;;;;;;;0.52;0.52;;;6.60;99.90;;;;;;5051755;28;20455;-76
2022/12/30 09:36:22;;;;;;;0.40;0.40;;;6.80;99.90;;;;;;5058231;28;20425;-75
2022/12/30 09:38:49;;;;;;;0.47;0.47;;;7.00;99.90;;;;;;5065629;28;20429;-75
2022/12/30 09:44:56;;;;;;;0.52;0.52;;;7.00;99.90;;;;;;5068455;28;20548;-76
2022/12/30 09:47:40;;;;;;;0.60;0.60;;;7.00;99.90;;;;;;5048308;28;20428;-76
2022/12/30 09:50:30;;;;;;;0.65;0.55;;;7.10;99.90;;;;;;5066155;28;20439;-75
2022/12/30 09:53:06;;;;;;;0.73;0.57;;;7.20;99.90;;;;;;5053221;28;20812;-77
2022/12/30 09:55:57;;;;;;;0.90;0.60;;;7.60;99.90;;;;;;5039185;28;20923;-75
2022/12/30 09:58:31;;;;;;;0.40;0.40;;;7.60;99.90;;;;;;5069872;28;20448;-75
2022/12/30 10:01:14;;;;;;;0.73;0.50;;;7.90;99.90;;;;;;5059563;28;20928;-75
2022/12/30 10:03:42;;;;;;;0.70;0.60;;;8.20;99.90;;;;;;5058163;28;20432;-77
2022/12/30 10:07:02;;;;;;;0.40;0.40;;;8.30;99.90;;;;;;5057781;28;20429;-76
2022/12/30 10:09:37;;;;;;;0.35;0.35;;;8.30;99.90;;;;;;5071394;28;20437;-76
2022/12/30 10:12:22;;;;;;;0.43;0.43;;;8.40;99.90;;;;;;5071530;28;20516;-75
2022/12/30 10:15:00;;;;;;;0.35;0.35;;;8.40;99.90;;;;;;5049980;28;20433;-75
2022/12/30 10:17:30;;;;;;;0.80;0.80;;;8.50;99.90;;;;;;5053759;28;20531;-75
2022/12/30 10:20:26;;;;;;;0.80;0.80;;;8.40;99.90;;;;;;5065347;28;20444;-75
2022/12/30 10:23:13;;;;;;;2.20;0.70;;;8.50;99.90;;;;;;5061071;28;20466;-75
2022/12/30 10:25:49;;;;;;;0.47;0.47;;;8.40;99.90;;;;;;5058834;28;20520;-75
2022/12/30 10:28:27;;;;;;;0.30;0.30;;;8.40;99.90;;;;;;5054118;28;20929;-75
2022/12/30 10:30:56;;;;;;;2.30;0.40;;;8.30;99.90;;;;;;5054993;28;20433;-75
2022/12/30 10:33:31;;;;;;;0.38;0.38;;;8.30;99.90;;;;;;5044185;28;21934;-75
2022/12/30 10:36:16;;;;;;;0.50;0.50;;;8.20;99.90;;;;;;5050437;28;20943;-75
2022/12/30 10:38:43;;;;;;;0.20;0.20;;;8.10;99.90;;;;;;5058716;28;20483;-75
2022/12/30 10:41:39;;;;;;;0.60;0.40;;;8.10;99.90;;;;;;5069277;28;20427;-75
2022/12/30 10:44:58;;;;;;;2.30;0.47;;;8.20;99.90;;;;;;5062090;28;20452;-75
2022/12/30 10:47:42;;;;;;;0.50;0.40;;;8.20;99.90;;;;;;4971283;28;20435;-75
2022/12/30 10:50:20;;;;;;;0.40;0.30;;;8.20;99.90;;;;;;4977769;28;20951;-76
2022/12/30 10:52:47;;;;;;;0.47;0.47;;;8.30;99.90;;;;;;4985266;28;20438;-75
2022/12/30 10:55:25;;;;;;;0.30;0.30;;;8.50;99.90;;;;;;4984826;28;20435;-74
2022/12/30 10:58:11;;;;;;;0.20;0.20;;;8.40;99.90;;;;;;4981772;28;21010;-76
2022/12/30 11:00:41;;;;;;;0.38;0.38;;;8.30;99.90;;;;;;4976707;28;20434;-75
2022/12/30 11:03:25;;;;;;;0.75;0.55;;;8.30;99.90;;;;;;4968172;28;20534;-75
2022/12/30 11:05:52;;;;;;;0.10;0.10;;;8.30;99.90;;;;;;4976232;28;20830;-75
2022/12/30 11:08:26;;;;;;;0.20;0.20;;;8.30;99.90;;;;;;4986487;28;20518;-76
2022/12/30 11:11:00;;;;;;;0.20;0.20;;;8.30;99.90;;;;;;4975054;28;20460;-75
2022/12/30 11:16:42;;;;;;;0.10;0.10;;;8.30;99.90;;;;;;4981039;28;21204;-75
2022/12/30 11:19:31;;;;;;;0.50;0.47;;;8.30;99.90;;;;;;4978993;28;20524;-76
2022/12/30 11:22:03;;;;;;;0.50;0.50;;;8.20;99.90;;;;;;4963853;28;20537;-77
2022/12/30 11:24:30;;;;;;;0.30;0.30;;;8.10;99.90;;;;;;5033399;28;20435;-76
2022/12/30 11:26:57;;;;;;;4.55;0.32;;;8.10;99.90;;;;;;5058172;28;20770;-77
2022/12/30 11:29:29;;;;;;;0.10;0.10;;;8.10;99.90;;;;;;5051190;28;20445;-76
2022/12/30 11:31:57;;;;;;;0.20;0.20;;;8.00;99.90;;;;;;5054105;28;20793;-76
2022/12/30 11:34:33;;;;;;;0.30;0.30;;;8.00;99.90;;;;;;5049397;28;20443;-76
2022/12/30 11:37:24;;;;;;;0.20;0.20;;;8.00;99.90;;;;;;5048673;28;20443;-76
2022/12/30 11:39:58;;;;;;;0.20;0.20;;;8.00;99.90;;;;;;5045668;28;20433;-76
2022/12/30 11:42:30;;;;;;;0.40;0.40;;;7.90;99.90;;;;;;5061902;28;20427;-76
2022/12/30 11:45:19;;;;;;;0.20;0.20;;;7.90;99.90;;;;;;5056541;28;20494;-76
2022/12/30 11:47:47;;;;;;;0.20;0.20;;;8.00;99.90;;;;;;5064968;28;20425;-76
2022/12/30 11:50:18;;;;;;;3.00;0.30;;;8.00;99.90;;;;;;5053363;28;20512;-76
2022/12/30 11:52:58;;;;;;;0.32;0.32;;;8.00;99.90;;;;;;5055923;28;20469;-76
2022/12/30 11:55:25;;;;;;;0.20;0.20;;;8.10;99.90;;;;;;5068794;28;20435;-75
2022/12/30 11:57:57;;;;;;;0.40;0.40;;;8.10;99.90;;;;;;5057736;28;20432;-76
2022/12/30 12:00:38;;;;;;;0.13;0.13;;;8.10;99.90;;;;;;5062946;28;20493;-76
2022/12/30 12:03:11;;;;;;;0.17;0.17;;;8.20;99.90;;;;;;5057425;28;20447;-75
2022/12/30 12:05:42;;;;;;;0.22;0.22;;;8.10;99.90;;;;;;5065706;28;20989;-76
2022/12/30 12:08:33;;;;;;;0.80;0.33;;;8.10;99.90;;;;;;5051395;28;20536;-75
2022/12/30 12:11:06;;;;;;;0.40;0.30;;;8.20;99.90;;;;;;5051615;28;20435;-77
2022/12/30 12:13:37;;;;;;;0.20;0.20;;;8.20;99.90;;;;;;5060654;28;20431;-76
2022/12/30 12:16:05;;;;;;;0.50;0.50;;;8.20;99.90;;;;;;5049489;28;20437;-77
2022/12/30 12:18:39;;;;;;;0.20;0.20;;;8.20;99.90;;;;;;5056712;28;20418;-77
2022/12/30 12:21:26;;;;;;;2.40;0.30;;;8.20;99.90;;;;;;5064003;28;20501;-77
2022/12/30 12:24:16;;;;;;;0.15;0.13;;;8.20;99.90;;;;;;5060860;28;20462;-76
2022/12/30 12:27:02;;;;;;;0.13;0.13;;;8.30;99.90;;;;;;5038175;28;20486;-76
2022/12/30 12:29:29;;;;;;;0.60;0.20;;;8.30;99.90;;;;;;5057171;28;21091;-76
2022/12/30 12:32:23;;;;;;;0.10;0.10;;;8.40;99.90;;;;;;5053827;28;20435;-75
2022/12/30 12:35:23;;;;;;;0.20;0.20;;;8.30;99.90;;;;;;5060719;28;20784;-76
2022/12/30 12:38:03;;;;;;;0.52;0.38;;;8.40;99.90;;;;;;5055412;28;20464;-76
2022/12/30 12:40:30;;;;;;;3.75;0.30;;;8.40;99.90;;;;;;5049390;28;20901;-76
2022/12/30 12:43:12;;;;;;;0.10;0.10;;;8.40;99.90;;;;;;5056915;28;20429;-76
2022/12/30 12:46:10;;;;;;;0.28;0.28;;;8.40;99.90;;;;;;5060073;28;20952;-76
2022/12/30 12:48:49;;;;;;;0.20;0.20;;;8.50;99.90;;;;;;5048607;28;20465;-76
2022/12/30 12:52:01;;;;;;;0.10;0.10;;;8.50;99.90;;;;;;5057675;28;20433;-76
2022/12/30 12:54:51;;;;;;;0.10;0.10;;;8.60;99.90;;;;;;5049224;28;20965;-76
2022/12/30 12:57:36;;;;;;;0.50;0.25;;;8.60;99.90;;;;;;5060875;28;21123;-76
2022/12/30 13:00:16;;;;;;;0.40;0.40;;;8.50;99.90;;;;;;5041663;28;20433;-75
2022/12/30 13:03:07;;;;;;;0.20;0.20;;;8.50;99.90;;;;;;5053082;28;20489;-76
2022/12/30 13:05:56;;;;;;;0.10;0.10;;;8.50;99.90;;;;;;5044225;28;20422;-75
2022/12/30 13:09:10;;;;;;;0.85;0.40;;;8.60;99.90;;;;;;5064035;28;20432;-75
2022/12/30 13:11:43;;;;;;;0.10;0.10;;;8.60;99.90;;;;;;5003430;28;20451;-76
2022/12/30 13:14:21;;;;;;;0.20;0.20;;;8.60;99.90;;;;;;4998260;28;20448;-75
2022/12/30 13:16:53;;;;;;;0.10;0.10;;;8.60;99.90;;;;;;5001127;28;21038;-76
2022/12/30 13:19:23;;;;;;;0.20;0.20;;;8.60;99.90;;;;;;5004827;28;20436;-75
2022/12/30 13:21:55;;;;;;;2.10;0.90;;;8.60;99.90;;;;;;5007893;28;20488;-76
2022/12/30 13:24:46;;;;;;;0.10;0.10;;;8.60;99.90;;;;;;4989296;28;20800;-76
2022/12/30 13:27:27;;;;;;;0.20;0.20;;;8.60;99.90;;;;;;4997749;28;20440;-77
2022/12/30 13:29:56;;;;;;;0.10;0.10;;;8.50;99.90;;;;;;5009135;28;20519;-77
2022/12/30 13:32:44;;;;;;;0.13;0.13;;;8.50;99.90;;;;;;5015442;28;20490;-77
2022/12/30 13:35:22;;;;;;;0.10;0.10;;;8.50;99.90;;;;;;4995279;28;20512;-77
2022/12/30 13:37:57;;;;;;;0.30;0.30;;;8.50;99.90;;;;;;5005369;28;20466;-78
2022/12/30 13:40:28;;;;;;;0.20;0.20;;;8.50;99.90;;;;;;5006637;28;20436;-78
2022/12/30 13:42:57;;;;;;;0.17;0.17;;;8.50;99.90;;;;;;5005056;28;20947;-76
2022/12/30 13:45:41;;;;;;;0.20;0.20;;;8.50;99.90;;;;;;4994204;28;20441;-76
2022/12/30 13:48:15;;;;;;;0.20;0.20;;;8.50;99.90;;;;;;5037240;28;21152;-76
2022/12/30 13:50:43;;;;;;;0.30;0.30;;;8.50;99.90;;;;;;5062440;28;21894;-77
2022/12/30 13:53:29;;;;;;;0.20;0.20;;;8.40;99.90;;;;;;5060755;28;20424;-76
2022/12/30 13:55:55;;;;;;;0.10;0.10;;;8.40;99.90;;;;;;5054431;28;20634;-77
2022/12/30 13:58:46;;;;;;;0.20;0.20;;;8.40;99.90;;;;;;5064016;28;20435;-77
2022/12/30 14:01:18;;;;;;;0.20;0.20;;;8.50;99.90;;;;;;5050645;28;20784;-76
2022/12/30 14:04:11;;;;;;;0.20;0.20;;;8.50;99.90;;;;;;5061513;28;20491;-76
2022/12/30 14:06:52;;;;;;;0.20;0.20;;;8.50;99.90;;;;;;5048689;28;20421;-78
2022/12/30 14:09:21;;;;;;;0.10;0.10;;;8.50;99.90;;;;;;5059461;28;20428;-77
2022/12/30 14:12:08;;;;;;;0.10;0.10;;;8.50;99.90;;;;;;5064821;28;20797;-76
2022/12/30 14:14:42;;;;;;;0.20;0.20;;;8.60;99.90;;;;;;5057109;28;20436;-76
2022/12/30 14:17:32;;;;;;;0.90;0.65;;;8.60;99.90;;;;;;5058032;28;20466;-76
2022/12/30 14:20:19;;;;;;;0.15;0.15;;;8.60;99.90;;;;;;5069832;28;20525;-76
2022/12/30 14:22:47;;;;;;;2.15;0.25;;;8.60;99.90;;;;;;5060493;28;20473;-76
2022/12/30 14:25:13;;;;;;;0.20;0.20;;;8.60;99.90;;;;;;5054906;28;20508;-76
2022/12/30 14:27:42;;;;;;;0.20;0.20;;;8.70;99.90;;;;;;5064145;28;20415;-77